Airfield :
LOGIN :

Register | Disclaimer

   EN    FR    IT 

 










Legend :    VFR   Marginal VFR   IFR   Intensive IFR   Very Intensive IFR
Visi :
Ceiling :
>= 8 km
>= 3000ft
5 to 8 km
1000 to 3000 ft
1500m to 5 km
500 to 1000 ft
800 to 1500m
200 to 500 ft
< 800m
< 200 ft
Symbols :   Thunderstorms  Fog  Heavy snow  Heavy precipitations  Wind > 20 kt
SIGMETs :     Misc.  Thunderstorms  Icing  Turbulence  Mountain Waves  Volcanic Ashes







- Airport Elevation : 1345 ft
- IATA code : FRZ


ETHF - Fritzlar

CURRENT METAR :
  • 160820Z 27002KT 9999 -RA BKN020 BKN035 01/M00 Q1006 WHT

EXPIRED METARs :
  • 160807Z 34001KT 9999 BKN023 BKN040 01/00 Q1006 WHT
  • 160733Z 05001KT 9999 FEW020 BKN030 00/M00 Q1006 BLU
  • 160720Z 33001KT 7000 BKN030 00/M00 Q1006 WHT
  • 160620Z 22001KT 5000 VCFG BR BKN044 00/M00 Q1005 WHT
  • 160611Z 18001KT 5000 VCFG BR BKN040 00/M00 Q1005 WHT

Expired Forecast.
No reported NOTAMs for that airfield.



MET'MAP, your aeronautical weather chart ! - Copyright ORBIFLY December 2007 - Disclaimer

ORBIFLY MET'MAP TEAM :

Programming & Development : Alexandra Zaïnal
Concept & Development : Baudouin d'Aumeries
Co-Development & Prog : Marc-Olivier Méhu
Technical & hardware support : Manuel Goepfert

Contact : metmap@orbifly.com




SOURCES & CREDITS :

   NOAA